createdAt,value
2019-01-04T00:01:59.026Z,5.37
2019-01-04T00:07:05.086Z,5.40
2019-01-04T00:12:11.357Z,4.97
2019-01-04T00:17:17.635Z,6.53
2019-01-04T00:22:23.889Z,5.13
2019-01-04T00:27:30.004Z,5.83
2019-01-04T00:32:36.061Z,5.60
2019-01-04T00:37:42.179Z,5.20
2019-01-04T00:42:48.406Z,5.73
2019-01-04T00:47:54.495Z,5.33
2019-01-04T00:53:00.557Z,4.70
2019-01-04T00:58:33.909Z,5.20
2019-01-04T01:04:26.278Z,5.13
2019-01-04T01:10:14.525Z,4.97
2019-01-04T01:16:13.432Z,5.37
2019-01-04T01:22:04.996Z,5.50
2019-01-04T01:27:41.991Z,5.40
2019-01-04T01:33:07.957Z,5.30
2019-01-04T01:39:07.051Z,5.87
2019-01-04T01:44:44.951Z,5.63
2019-01-04T01:50:37.604Z,5.33
2019-01-04T01:55:43.717Z,5.60
2019-01-04T02:00:49.755Z,5.60
2019-01-04T02:05:55.721Z,5.40
2019-01-04T02:11:02.005Z,5.00
2019-01-04T02:16:08.076Z,6.17
2019-01-04T02:21:14.291Z,6.50
2019-01-04T02:26:20.430Z,5.40
2019-01-04T02:31:26.640Z,6.30
2019-01-04T02:36:32.791Z,6.83
2019-01-04T02:41:38.957Z,7.70
2019-01-04T02:46:45.155Z,7.53
2019-01-04T02:51:51.226Z,7.33
2019-01-04T02:56:57.316Z,8.27
2019-01-04T03:02:04.771Z,8.47
2019-01-04T03:07:10.986Z,8.03
2019-01-04T03:12:17.145Z,7.73
2019-01-04T03:17:23.244Z,8.30
2019-01-04T03:22:29.299Z,8.83
2019-01-04T03:27:35.372Z,8.60
2019-01-04T03:32:41.546Z,8.37
2019-01-04T03:37:47.652Z,8.63
2019-01-04T03:42:53.686Z,8.93
2019-01-04T03:47:59.853Z,8.30
2019-01-04T03:53:05.921Z,8.63
2019-01-04T03:58:12.062Z,9.17
2019-01-04T04:03:18.324Z,8.83
2019-01-04T04:08:24.454Z,9.33
2019-01-04T04:13:30.553Z,8.37
2019-01-04T04:18:36.740Z,9.50
2019-01-04T04:23:42.816Z,9.17
2019-01-04T04:28:48.923Z,9.40
2019-01-04T04:33:55.112Z,9.83
2019-01-04T04:39:01.126Z,10.27
2019-01-04T04:44:07.410Z,11.30
2019-01-04T04:49:13.483Z,10.27
2019-01-04T04:54:19.681Z,9.73
2019-01-04T04:59:25.734Z,10.60
2019-01-04T05:04:31.840Z,11.43
2019-01-04T05:09:37.894Z,11.67
2019-01-04T05:14:43.996Z,12.10
2019-01-04T05:19:49.885Z,11.97
2019-01-04T05:24:55.903Z,12.20
2019-01-04T05:30:01.997Z,12.80
2019-01-04T05:35:08.564Z,12.93
2019-01-04T05:40:14.629Z,13.17
2019-01-04T05:45:20.802Z,13.63
2019-01-04T05:50:26.997Z,12.90
2019-01-04T05:55:33.163Z,12.47
2019-01-04T06:00:39.349Z,14.00
2019-01-04T06:05:45.441Z,15.43
2019-01-04T06:10:51.493Z,15.60
2019-01-04T06:15:57.690Z,15.03
2019-01-04T06:21:03.830Z,16.43
2019-01-04T06:26:09.948Z,15.63
2019-01-04T06:31:16.031Z,16.20
2019-01-04T06:36:22.208Z,16.37
2019-01-04T06:41:28.330Z,15.57
2019-01-04T06:46:34.510Z,15.77
2019-01-04T06:51:40.619Z,16.97
2019-01-04T06:56:46.814Z,15.50
2019-01-04T07:01:52.846Z,16.87
2019-01-04T07:06:58.921Z,16.70
2019-01-04T07:12:05.112Z,19.00
2019-01-04T07:17:11.183Z,20.50
2019-01-04T07:22:17.277Z,19.13
2019-01-04T07:27:23.501Z,20.87
2019-01-04T07:32:29.705Z,19.27
2019-01-04T07:37:35.756Z,20.13
2019-01-04T07:42:41.890Z,17.77
2019-01-04T07:47:48.015Z,18.00
2019-01-04T07:52:54.203Z,17.80
2019-01-04T07:58:00.265Z,18.53
2019-01-04T08:03:21.841Z,17.57
2019-01-04T08:08:27.992Z,17.20
2019-01-04T08:13:34.057Z,14.53
2019-01-04T08:18:40.056Z,14.27
2019-01-04T08:23:46.101Z,13.37
2019-01-04T08:28:52.081Z,14.27
2019-01-04T08:33:58.242Z,11.93
2019-01-04T08:39:05.702Z,11.03
2019-01-04T08:44:11.736Z,12.00
2019-01-04T08:49:37.984Z,12.10
2019-01-04T08:54:44.067Z,10.70
2019-01-04T08:59:50.200Z,11.07
2019-01-04T09:04:56.226Z,11.77
2019-01-04T09:10:02.352Z,12.33
2019-01-04T09:15:10.880Z,11.70
2019-01-04T09:20:17.936Z,11.73
2019-01-04T09:25:24.149Z,11.47
2019-01-04T09:30:30.255Z,10.40
2019-01-04T09:35:36.463Z,9.47
2019-01-04T09:40:42.533Z,9.33
2019-01-04T09:45:48.601Z,8.87
2019-01-04T09:50:54.762Z,8.97
2019-01-04T09:56:00.864Z,9.00
2019-01-04T10:01:06.932Z,8.40
2019-01-04T10:06:13.109Z,8.80
2019-01-04T10:11:19.274Z,8.80
2019-01-04T10:16:25.281Z,9.13
2019-01-04T10:21:31.321Z,7.93
2019-01-04T10:26:38.459Z,9.00
2019-01-04T10:31:44.632Z,9.37
2019-01-04T10:36:50.977Z,8.23
2019-01-04T10:41:57.107Z,8.27
2019-01-04T10:47:03.161Z,7.93
2019-01-04T10:52:09.257Z,6.97
2019-01-04T10:57:15.377Z,6.80
2019-01-04T11:02:21.565Z,7.23
2019-01-04T11:07:27.692Z,6.90
2019-01-04T11:12:33.966Z,7.20
2019-01-04T11:17:40.085Z,6.97
2019-01-04T11:23:01.653Z,7.20
2019-01-04T11:28:44.865Z,7.13
2019-01-04T11:33:57.227Z,6.67
2019-01-04T11:39:32.581Z,7.17
2019-01-04T11:44:56.798Z,7.67
2019-01-04T11:50:23.849Z,7.33
2019-01-04T11:55:29.931Z,7.77
2019-01-04T12:00:36.026Z,8.63
2019-01-04T12:05:42.156Z,8.80
2019-01-04T12:10:48.318Z,8.70
2019-01-04T12:15:54.451Z,9.70
2019-01-04T12:21:00.531Z,8.73
2019-01-04T12:26:06.668Z,9.90
2019-01-04T12:31:12.826Z,10.00
2019-01-04T12:36:18.910Z,9.27
2019-01-04T12:41:25.034Z,9.00
2019-01-04T12:46:31.163Z,9.50
2019-01-04T12:51:37.354Z,8.90
2019-01-04T12:56:43.412Z,8.93
2019-01-04T13:01:49.605Z,9.07
2019-01-04T13:06:55.660Z,8.60
2019-01-04T13:12:01.648Z,8.63
2019-01-04T13:17:07.718Z,7.20
2019-01-04T13:22:14.243Z,8.30
2019-01-04T13:27:20.280Z,7.27
2019-01-04T13:32:26.365Z,8.60
2019-01-04T13:37:32.630Z,7.70
2019-01-04T13:42:38.796Z,9.23
2019-01-04T13:47:44.790Z,8.27
2019-01-04T13:52:50.888Z,9.67
2019-01-04T13:57:57.040Z,8.43
2019-01-04T14:03:03.123Z,8.53
2019-01-04T14:08:09.174Z,9.50
2019-01-04T14:13:15.166Z,8.10
2019-01-04T14:18:21.340Z,7.30
2019-01-04T14:23:28.920Z,7.50
2019-01-04T14:28:35.137Z,7.53
2019-01-04T14:33:41.188Z,7.20
2019-01-04T14:38:47.376Z,7.27
2019-01-04T14:43:53.489Z,6.63
2019-01-04T14:48:59.540Z,7.10
2019-01-04T14:54:05.586Z,7.43
2019-01-04T14:59:11.775Z,8.13
2019-01-04T15:04:17.860Z,7.53
2019-01-04T15:09:23.936Z,9.03
2019-01-04T15:14:29.901Z,8.93
2019-01-04T15:19:36.085Z,9.17
2019-01-04T15:24:42.258Z,9.57
2019-01-04T15:29:48.428Z,9.10
2019-01-04T15:34:54.520Z,8.87
2019-01-04T15:40:00.671Z,9.13
2019-01-04T15:45:07.391Z,9.10
2019-01-04T15:50:14.380Z,9.20
2019-01-04T15:55:20.492Z,8.40
2019-01-04T16:00:26.697Z,8.57
2019-01-04T16:05:32.804Z,8.40
2019-01-04T16:10:38.965Z,7.60
2019-01-04T16:15:45.050Z,9.37
2019-01-04T16:20:51.045Z,7.80
2019-01-04T16:25:57.065Z,7.10
2019-01-04T16:31:03.152Z,7.37
2019-01-04T16:36:10.273Z,6.50
2019-01-04T16:41:16.547Z,5.60
2019-01-04T16:46:22.701Z,6.00
2019-01-04T16:51:28.805Z,6.20
2019-01-04T16:56:34.911Z,6.50
2019-01-04T17:01:40.872Z,6.87
2019-01-04T17:06:46.997Z,6.33
2019-01-04T17:11:53.096Z,6.23
2019-01-04T17:16:59.178Z,6.10
2019-01-04T17:22:05.475Z,6.03
2019-01-04T17:27:11.734Z,5.73
2019-01-04T17:32:17.842Z,6.50
2019-01-04T17:37:23.884Z,5.00
2019-01-04T17:42:30.039Z,5.77
2019-01-04T17:47:36.236Z,5.10
2019-01-04T17:52:42.334Z,5.20
2019-01-04T17:57:48.387Z,4.70
2019-01-04T18:03:00.668Z,4.87
2019-01-04T18:08:02.361Z,5.00
2019-01-04T18:13:08.486Z,4.80
2019-01-04T18:18:14.557Z,4.60
2019-01-04T18:23:20.593Z,4.40
2019-01-04T18:28:26.680Z,5.90
2019-01-04T18:33:32.836Z,4.17
2019-01-04T18:38:38.944Z,4.50
2019-01-04T18:43:45.193Z,4.63
2019-01-04T18:48:51.499Z,4.40
2019-01-04T18:53:57.656Z,4.50
2019-01-04T18:59:03.823Z,4.67
2019-01-04T19:04:09.905Z,5.53
2019-01-04T19:09:15.974Z,5.47
2019-01-04T19:14:22.121Z,4.93
2019-01-04T19:19:28.240Z,7.00
2019-01-04T19:24:34.304Z,6.70
2019-01-04T19:29:40.432Z,6.43
2019-01-04T19:34:46.658Z,6.00
2019-01-04T19:39:53.122Z,6.23
2019-01-04T19:44:59.361Z,6.73
2019-01-04T19:50:30.593Z,8.30
2019-01-04T19:55:36.664Z,8.17
2019-01-04T20:00:42.744Z,9.23
2019-01-04T20:07:01.329Z,9.80
2019-01-04T20:13:19.408Z,12.00
2019-01-04T20:18:52.515Z,12.90
2019-01-04T20:24:19.395Z,14.33
2019-01-04T20:29:43.255Z,16.00
2019-01-04T20:35:08.398Z,16.57
2019-01-04T20:40:36.378Z,16.47
2019-01-04T20:46:00.371Z,17.70
2019-01-04T20:51:24.056Z,16.40
2019-01-04T20:56:49.077Z,15.93
2019-01-04T21:02:14.097Z,16.70
2019-01-04T21:07:38.704Z,16.03
2019-01-04T21:12:58.702Z,15.80
2019-01-04T21:18:22.602Z,15.10
2019-01-04T21:23:41.751Z,14.87
2019-01-04T21:29:05.567Z,14.23
2019-01-04T21:34:36.829Z,16.00
2019-01-04T21:40:02.052Z,15.00
2019-01-04T21:45:26.763Z,14.63
2019-01-04T21:50:50.864Z,13.20
2019-01-04T21:56:17.399Z,13.50
2019-01-04T22:01:40.667Z,14.60
2019-01-04T22:07:08.680Z,13.60
2019-01-04T22:12:32.575Z,14.57
2019-01-04T22:17:56.366Z,15.13
2019-01-04T22:23:37.446Z,14.53
2019-01-04T22:29:01.352Z,15.57
2019-01-04T22:34:25.738Z,14.67
2019-01-04T22:39:51.284Z,13.47
2019-01-04T22:45:28.387Z,13.83
2019-01-04T22:50:52.496Z,11.10
2019-01-04T22:56:16.242Z,9.63
2019-01-04T23:01:56.343Z,7.83
2019-01-04T23:07:21.360Z,8.07
2019-01-04T23:12:49.452Z,8.10
2019-01-04T23:18:12.328Z,7.13
2019-01-04T23:23:31.573Z,7.47
2019-01-04T23:28:55.478Z,7.07
2019-01-04T23:34:32.904Z,6.60
2019-01-04T23:40:10.313Z,4.93
2019-01-04T23:45:35.431Z,4.70
2019-01-04T23:50:59.645Z,5.13
2019-01-04T23:56:23.527Z,4.90
